createdAt,value
2018-10-18T00:00:48.282Z,15.57
2018-10-18T00:03:22.176Z,15.13
2018-10-18T00:05:56.173Z,15.33
2018-10-18T00:08:30.134Z,15.40
2018-10-18T00:11:04.002Z,15.60
2018-10-18T00:13:37.888Z,17.20
2018-10-18T00:16:11.684Z,17.03
2018-10-18T00:18:45.593Z,15.70
2018-10-18T00:21:19.432Z,16.23
2018-10-18T00:23:53.363Z,16.10
2018-10-18T00:26:27.216Z,16.23
2018-10-18T00:29:01.112Z,17.53
2018-10-18T00:31:34.985Z,17.80
2018-10-18T00:34:08.869Z,15.57
2018-10-18T00:36:42.710Z,16.40
2018-10-18T00:39:16.723Z,17.47
2018-10-18T00:41:50.615Z,17.43
2018-10-18T00:44:24.459Z,18.43
2018-10-18T00:46:58.316Z,16.30
2018-10-18T00:49:32.219Z,17.97
2018-10-18T00:52:06.404Z,21.87
2018-10-18T00:54:40.267Z,20.53
2018-10-18T00:57:14.255Z,21.70
2018-10-18T00:59:48.196Z,21.93
2018-10-18T01:02:22.018Z,24.20
2018-10-18T01:04:56.028Z,24.00
2018-10-18T01:07:29.856Z,24.90
2018-10-18T01:10:03.933Z,24.43
2018-10-18T01:12:37.801Z,20.30
2018-10-18T01:15:11.700Z,19.30
2018-10-18T01:17:45.553Z,20.07
2018-10-18T01:20:19.549Z,18.93
2018-10-18T01:22:53.458Z,20.87
2018-10-18T01:25:27.405Z,19.73
2018-10-18T01:28:01.238Z,18.23
2018-10-18T01:30:35.239Z,19.70
2018-10-18T01:33:09.070Z,22.00
2018-10-18T01:35:43.023Z,22.43
2018-10-18T01:38:17.070Z,28.47
2018-10-18T01:40:51.965Z,26.97
2018-10-18T01:43:25.866Z,28.50
2018-10-18T01:45:59.841Z,32.93
2018-10-18T01:48:33.810Z,34.17
2018-10-18T01:51:07.751Z,35.68
2018-10-18T01:53:41.705Z,34.73
2018-10-18T01:56:15.852Z,42.03
2018-10-18T01:58:49.725Z,37.40
2018-10-18T02:01:23.693Z,50.65
2018-10-18T02:03:57.522Z,61.58
2018-10-18T02:06:31.400Z,56.73
2018-10-18T02:09:08.444Z,55.30
2018-10-18T02:11:42.908Z,58.33
2018-10-18T02:14:16.783Z,57.23
2018-10-18T02:16:50.707Z,53.38
2018-10-18T02:19:24.613Z,92.57
2018-10-18T02:21:58.721Z,100.50
2018-10-18T02:24:32.612Z,86.70
2018-10-18T02:27:06.636Z,112.30
2018-10-18T02:29:40.595Z,101.53
2018-10-18T02:32:14.477Z,83.15
2018-10-18T02:34:48.382Z,192.43
2018-10-18T02:37:22.265Z,87.60
2018-10-18T02:39:56.140Z,95.70
2018-10-18T02:42:30.063Z,173.38
2018-10-18T02:45:03.997Z,76.77
2018-10-18T02:47:37.936Z,77.30
2018-10-18T02:50:11.797Z,77.22
2018-10-18T02:52:45.763Z,95.50
2018-10-18T02:55:19.665Z,98.80
2018-10-18T02:57:53.526Z,98.37
2018-10-18T03:00:27.374Z,77.42
2018-10-18T03:03:01.285Z,80.15
2018-10-18T03:05:35.090Z,99.07
2018-10-18T03:08:08.968Z,72.03
2018-10-18T03:10:42.873Z,86.15
2018-10-18T03:13:16.739Z,68.97
2018-10-18T03:15:50.628Z,67.87
2018-10-18T03:18:24.521Z,89.55
2018-10-18T03:20:58.354Z,95.47
2018-10-18T03:23:32.617Z,88.10
2018-10-18T03:26:06.503Z,87.33
2018-10-18T03:28:40.470Z,134.03
2018-10-18T03:31:14.396Z,72.17
2018-10-18T03:33:49.319Z,68.05
2018-10-18T03:36:23.235Z,85.85
2018-10-18T03:38:57.168Z,151.72
2018-10-18T03:41:30.992Z,81.85
2018-10-18T03:44:05.262Z,70.57
2018-10-18T03:46:39.094Z,111.75
2018-10-18T03:49:13.023Z,64.53
2018-10-18T03:51:46.948Z,63.48
2018-10-18T03:54:20.908Z,67.70
2018-10-18T03:56:54.989Z,61.20
2018-10-18T03:59:28.897Z,58.40
2018-10-18T04:02:02.713Z,65.78
2018-10-18T04:04:36.646Z,71.47
2018-10-18T04:07:10.749Z,53.38
2018-10-18T04:09:44.640Z,58.38
2018-10-18T04:12:18.571Z,61.80
2018-10-18T04:14:52.395Z,56.28
2018-10-18T04:17:26.197Z,47.33
2018-10-18T04:20:00.153Z,57.78
2018-10-18T04:22:33.967Z,53.78
2018-10-18T04:25:08.253Z,48.60
2018-10-18T04:27:42.090Z,47.35
2018-10-18T04:30:16.002Z,46.02
2018-10-18T04:32:49.816Z,49.88
2018-10-18T04:35:23.687Z,48.98
2018-10-18T04:37:57.624Z,42.62
2018-10-18T04:40:31.497Z,38.65
2018-10-18T04:43:05.735Z,42.15
2018-10-18T04:45:39.699Z,37.35
2018-10-18T04:48:13.939Z,36.60
2018-10-18T04:50:47.772Z,37.78
2018-10-18T04:53:21.636Z,39.63
2018-10-18T04:55:56.068Z,33.33
2018-10-18T04:58:29.850Z,40.03
2018-10-18T05:01:03.782Z,45.48
2018-10-18T05:03:37.609Z,40.90
2018-10-18T05:06:11.516Z,41.60
2018-10-18T05:08:45.343Z,39.48
2018-10-18T05:11:19.243Z,39.60
2018-10-18T05:13:53.065Z,42.60
2018-10-18T05:16:26.935Z,32.20
2018-10-18T05:19:00.801Z,37.88
2018-10-18T05:21:34.658Z,40.20
2018-10-18T05:24:08.604Z,33.50
2018-10-18T05:26:42.520Z,29.87
2018-10-18T05:29:16.422Z,28.77
2018-10-18T05:31:50.472Z,29.92
2018-10-18T05:34:24.304Z,25.05
2018-10-18T05:36:58.304Z,23.47
2018-10-18T05:39:32.109Z,24.95
2018-10-18T05:42:06.046Z,19.82
2018-10-18T05:44:39.874Z,22.13
2018-10-18T05:47:13.951Z,19.42
2018-10-18T05:49:47.753Z,22.40
2018-10-18T05:52:21.749Z,20.12
2018-10-18T05:54:55.811Z,20.43
2018-10-18T05:57:29.685Z,16.37
2018-10-18T06:00:03.716Z,17.57
2018-10-18T06:02:37.856Z,19.40
2018-10-18T06:05:13.132Z,16.10
2018-10-18T06:07:47.222Z,18.65
2018-10-18T06:10:32.281Z,17.65
2018-10-18T06:13:06.228Z,17.55
2018-10-18T06:15:40.131Z,22.48
2018-10-18T06:18:14.124Z,20.80
2018-10-18T06:20:48.025Z,21.27
2018-10-18T06:23:22.037Z,19.98
2018-10-18T06:25:55.972Z,20.40
2018-10-18T06:28:29.953Z,23.77
2018-10-18T06:31:03.984Z,21.70
2018-10-18T06:33:37.953Z,29.25
2018-10-18T06:36:12.094Z,24.57
2018-10-18T06:38:45.987Z,20.52
2018-10-18T06:41:19.869Z,29.80
2018-10-18T06:43:53.767Z,22.80
2018-10-18T06:46:27.651Z,24.20
2018-10-18T06:49:01.659Z,25.45
2018-10-18T06:51:35.494Z,27.48
2018-10-18T06:54:09.648Z,24.18
2018-10-18T06:56:43.516Z,23.77
2018-10-18T06:59:17.426Z,21.80
2018-10-18T07:01:51.320Z,26.73
2018-10-18T07:04:25.197Z,26.65
2018-10-18T07:06:59.107Z,27.73
2018-10-18T07:09:33.165Z,27.82
2018-10-18T07:12:07.466Z,26.27
2018-10-18T07:14:41.318Z,26.33
2018-10-18T07:17:15.604Z,28.25
2018-10-18T07:19:50.034Z,29.85
2018-10-18T07:22:23.930Z,24.40
2018-10-18T07:24:57.847Z,24.65
2018-10-18T07:27:31.833Z,32.35
2018-10-18T07:30:07.413Z,31.05
2018-10-18T07:32:41.339Z,28.15
2018-10-18T07:35:15.521Z,24.12
2018-10-18T07:37:49.612Z,23.15
2018-10-18T07:40:23.552Z,25.75
2018-10-18T07:42:57.444Z,26.07
2018-10-18T07:45:31.424Z,26.37
2018-10-18T07:48:05.704Z,25.15
2018-10-18T07:50:39.590Z,22.48
2018-10-18T07:53:13.631Z,28.00
2018-10-18T07:55:47.691Z,22.42
2018-10-18T07:58:21.565Z,27.73
2018-10-18T08:00:55.592Z,22.70
2018-10-18T08:03:31.063Z,25.97
2018-10-18T08:06:05.188Z,23.15
2018-10-18T08:08:39.065Z,21.42
2018-10-18T08:11:13.639Z,19.57
2018-10-18T08:13:47.541Z,19.77
2018-10-18T08:16:21.480Z,22.40
2018-10-18T08:18:55.402Z,21.73
2018-10-18T08:21:29.337Z,18.87
2018-10-18T08:24:03.255Z,20.43
2018-10-18T08:26:37.229Z,19.65
2018-10-18T08:29:11.125Z,19.70
2018-10-18T08:31:45.165Z,18.37
2018-10-18T08:34:19.465Z,17.73
2018-10-18T08:36:53.614Z,19.10
2018-10-18T08:39:27.512Z,19.15
2018-10-18T08:42:01.481Z,18.17
2018-10-18T08:44:35.509Z,16.82
2018-10-18T08:47:09.528Z,17.32
2018-10-18T08:49:43.514Z,16.65
2018-10-18T08:52:17.450Z,16.37
2018-10-18T08:54:51.330Z,16.52
2018-10-18T08:57:25.258Z,15.32
2018-10-18T08:59:59.137Z,15.50
2018-10-18T09:02:33.103Z,15.88
2018-10-18T09:05:07.482Z,14.47
2018-10-18T09:07:41.421Z,15.05
2018-10-18T09:10:15.456Z,16.62
2018-10-18T09:12:49.369Z,15.95
2018-10-18T09:15:23.257Z,17.92
2018-10-18T09:17:57.298Z,17.37
2018-10-18T09:20:31.213Z,17.50
2018-10-18T09:23:05.311Z,17.02
2018-10-18T09:25:39.144Z,17.50
2018-10-18T09:28:13.036Z,17.62
2018-10-18T09:30:46.896Z,18.30
2018-10-18T09:33:20.878Z,18.67
2018-10-18T09:35:54.713Z,19.25
2018-10-18T09:38:28.640Z,19.15
2018-10-18T09:41:02.572Z,18.45
2018-10-18T09:43:36.492Z,18.30
2018-10-18T09:46:10.387Z,16.97
2018-10-18T09:48:44.318Z,17.85
2018-10-18T09:51:18.173Z,17.85
2018-10-18T09:53:52.111Z,18.57
2018-10-18T09:56:26.116Z,18.98
2018-10-18T09:59:00.013Z,18.55
2018-10-18T10:01:39.006Z,18.25
2018-10-18T10:04:12.948Z,17.23
2018-10-18T10:06:46.821Z,18.25
2018-10-18T10:09:20.801Z,19.90
2018-10-18T10:11:54.652Z,21.27
2018-10-18T10:14:28.654Z,20.43
2018-10-18T10:17:02.566Z,19.75
2018-10-18T10:19:36.491Z,18.60
2018-10-18T10:22:10.378Z,19.90
2018-10-18T10:24:44.339Z,19.70
2018-10-18T10:27:18.236Z,20.25
2018-10-18T10:29:52.125Z,19.23
2018-10-18T10:32:26.000Z,18.55
2018-10-18T10:34:59.922Z,17.30
2018-10-18T10:37:33.866Z,16.90
2018-10-18T10:40:09.140Z,18.12
2018-10-18T10:42:43.261Z,18.85
2018-10-18T10:45:17.442Z,17.65
2018-10-18T10:47:52.078Z,16.10
2018-10-18T10:50:25.999Z,16.80
2018-10-18T10:52:59.845Z,15.65
2018-10-18T10:55:33.744Z,15.55
2018-10-18T10:58:07.914Z,13.15
2018-10-18T11:01:15.783Z,11.20
2018-10-18T11:03:51.146Z,12.03
2018-10-18T11:06:25.290Z,13.40
2018-10-18T11:08:59.172Z,15.50
2018-10-18T11:11:33.064Z,12.90
2018-10-18T11:14:07.033Z,12.07
2018-10-18T11:16:40.970Z,13.78
2018-10-18T11:19:15.870Z,13.13
2018-10-18T11:21:49.972Z,12.10
2018-10-18T11:24:23.797Z,14.03
2018-10-18T11:26:57.811Z,13.30
2018-10-18T11:29:31.683Z,13.28
2018-10-18T11:32:05.891Z,12.53
2018-10-18T11:34:39.802Z,12.82
2018-10-18T11:37:13.750Z,12.23
2018-10-18T11:39:47.635Z,12.45
2018-10-18T11:42:21.805Z,12.58
2018-10-18T11:44:55.588Z,12.43
2018-10-18T11:47:29.596Z,10.53
2018-10-18T11:50:03.480Z,8.30
2018-10-18T11:52:37.483Z,8.55
2018-10-18T11:55:11.441Z,8.50
2018-10-18T11:57:45.638Z,8.63
2018-10-18T12:00:20.144Z,9.88
2018-10-18T12:02:54.140Z,10.28
2018-10-18T12:05:28.077Z,10.43
2018-10-18T12:08:02.114Z,9.60
2018-10-18T12:10:35.988Z,9.33
2018-10-18T12:13:09.993Z,9.20
2018-10-18T12:15:43.867Z,10.10
2018-10-18T12:18:17.764Z,8.10
2018-10-18T12:20:51.645Z,10.00
2018-10-18T12:23:25.531Z,8.85
2018-10-18T12:25:59.399Z,9.38
2018-10-18T12:28:33.341Z,8.25
2018-10-18T12:31:07.320Z,8.15
2018-10-18T12:33:41.200Z,8.88
2018-10-18T12:36:15.091Z,7.42
2018-10-18T12:38:49.085Z,7.70
2018-10-18T12:41:25.321Z,8.28
2018-10-18T12:43:59.252Z,8.78
2018-10-18T12:46:33.136Z,7.35
2018-10-18T12:49:07.090Z,8.85
2018-10-18T12:51:41.030Z,7.70
2018-10-18T12:54:15.031Z,8.00
2018-10-18T12:56:48.988Z,7.80
2018-10-18T12:59:23.430Z,7.90
2018-10-18T13:01:57.426Z,7.33
2018-10-18T13:04:31.352Z,7.97
2018-10-18T13:07:05.539Z,7.30
2018-10-18T13:09:39.529Z,8.58
2018-10-18T13:12:13.554Z,15.00
2018-10-18T13:14:47.643Z,8.95
2018-10-18T13:18:08.602Z,8.95
2018-10-18T13:20:43.685Z,8.98
2018-10-18T13:23:17.621Z,8.63
2018-10-18T13:25:53.574Z,11.43
2018-10-18T13:29:07.884Z,11.03
2018-10-18T13:31:42.568Z,9.83
2018-10-18T13:34:16.537Z,8.85
2018-10-18T13:36:50.477Z,10.35
2018-10-18T13:39:24.420Z,9.75
2018-10-18T13:41:58.449Z,10.30
2018-10-18T13:44:32.349Z,10.30
2018-10-18T13:47:06.462Z,11.53
2018-10-18T13:49:40.374Z,10.40
2018-10-18T13:52:14.324Z,13.75
2018-10-18T13:54:48.213Z,12.98
2018-10-18T13:57:22.292Z,13.48
2018-10-18T14:00:28.684Z,12.55
2018-10-18T14:03:02.676Z,11.90
2018-10-18T14:05:36.678Z,11.35
2018-10-18T14:08:10.708Z,11.97
2018-10-18T14:10:44.561Z,14.00
2018-10-18T14:13:18.496Z,10.93
2018-10-18T14:15:52.384Z,11.60
2018-10-18T14:18:26.293Z,12.53
2018-10-18T14:21:00.198Z,16.65
2018-10-18T14:23:34.242Z,16.45
2018-10-18T14:26:08.270Z,12.70
2018-10-18T14:28:42.067Z,14.98
2018-10-18T14:31:16.133Z,16.10
2018-10-18T14:33:50.153Z,35.92
2018-10-18T14:36:24.039Z,18.02
2018-10-18T14:38:58.342Z,12.10
2018-10-18T14:41:32.237Z,12.20
2018-10-18T14:44:06.540Z,8.45
2018-10-18T14:46:40.425Z,19.07
2018-10-18T14:49:14.310Z,11.63
2018-10-18T14:51:48.210Z,4.28
2018-10-18T14:54:22.153Z,3.75
2018-10-18T14:56:56.015Z,3.77
2018-10-18T14:59:30.077Z,14.30
2018-10-18T15:02:04.173Z,4.42
2018-10-18T15:04:38.432Z,4.47
2018-10-18T15:07:12.244Z,4.97
2018-10-18T15:09:46.181Z,4.55
2018-10-18T15:12:20.059Z,3.60
2018-10-18T15:14:53.989Z,3.77
2018-10-18T15:17:27.851Z,7.25
2018-10-18T15:20:03.839Z,3.40
2018-10-18T15:22:47.189Z,4.10
2018-10-18T15:25:21.373Z,11.70
2018-10-18T15:27:55.207Z,4.00
2018-10-18T15:30:29.152Z,4.58
2018-10-18T15:33:03.101Z,5.70
2018-10-18T15:35:37.029Z,13.95
2018-10-18T15:38:11.116Z,3.20
2018-10-18T15:40:44.979Z,4.03
2018-10-18T15:43:19.068Z,3.15
2018-10-18T15:45:52.957Z,3.35
2018-10-18T15:48:26.970Z,3.62
2018-10-18T15:51:03.129Z,3.37
2018-10-18T15:53:37.237Z,3.98
2018-10-18T15:56:23.895Z,7.53
2018-10-18T15:58:57.949Z,4.30
2018-10-18T16:01:32.050Z,4.00
2018-10-18T16:04:06.868Z,4.25
2018-10-18T16:06:41.269Z,6.15
2018-10-18T16:09:15.793Z,6.05
2018-10-18T16:11:50.946Z,4.37
2018-10-18T16:14:24.908Z,6.90
2018-10-18T16:16:59.002Z,4.75
2018-10-18T16:19:33.072Z,7.87
2018-10-18T16:22:07.368Z,9.08
2018-10-18T16:24:41.384Z,6.97
2018-10-18T16:27:16.436Z,5.75
2018-10-18T16:29:50.629Z,6.00
2018-10-18T16:32:24.615Z,8.13
2018-10-18T16:34:59.115Z,7.85
2018-10-18T16:37:33.188Z,8.90
2018-10-18T16:40:07.622Z,6.58
2018-10-18T16:42:41.779Z,9.55
2018-10-18T16:45:15.675Z,5.53
2018-10-18T16:47:49.664Z,8.25
2018-10-18T16:50:23.651Z,6.00
2018-10-18T16:52:57.629Z,8.85
2018-10-18T16:55:31.580Z,9.68
2018-10-18T16:58:05.694Z,8.55
2018-10-18T17:00:39.536Z,9.18
2018-10-18T17:03:13.554Z,9.40
2018-10-18T17:05:47.554Z,7.33
2018-10-18T17:08:21.572Z,9.83
2018-10-18T17:10:56.323Z,8.48
2018-10-18T17:13:30.280Z,6.05
2018-10-18T17:16:04.277Z,8.15
2018-10-18T17:18:38.485Z,8.65
2018-10-18T17:21:12.514Z,8.65
2018-10-18T17:23:46.606Z,5.15
2018-10-18T17:26:20.618Z,7.67
2018-10-18T17:28:54.535Z,6.30
2018-10-18T17:31:28.845Z,5.75
2018-10-18T17:34:02.929Z,5.45
2018-10-18T17:36:36.811Z,7.78
2018-10-18T17:39:11.573Z,7.17
2018-10-18T17:41:45.471Z,4.50
2018-10-18T17:44:19.374Z,7.50
2018-10-18T17:46:53.334Z,6.30
2018-10-18T17:49:27.516Z,4.67
2018-10-18T17:52:02.116Z,4.85
2018-10-18T17:54:36.046Z,7.20
2018-10-18T17:57:10.173Z,7.17
2018-10-18T17:59:44.205Z,7.10
2018-10-18T18:02:18.341Z,8.70
2018-10-18T18:04:53.947Z,6.72
2018-10-18T18:07:28.108Z,8.05
2018-10-18T18:10:02.387Z,7.05
2018-10-18T18:12:36.556Z,7.03
2018-10-18T18:15:10.965Z,5.45
2018-10-18T18:17:44.884Z,5.42
2018-10-18T18:20:18.796Z,6.50
2018-10-18T18:22:53.002Z,3.90
2018-10-18T18:25:26.920Z,7.47
2018-10-18T18:28:00.749Z,14.40
2018-10-18T18:30:34.657Z,4.87
2018-10-18T18:33:08.537Z,4.22
2018-10-18T18:35:42.461Z,4.55
2018-10-18T18:38:16.296Z,3.50
2018-10-18T18:40:50.216Z,4.37
2018-10-18T18:43:24.108Z,3.50
2018-10-18T18:45:58.113Z,3.75
2018-10-18T18:48:31.952Z,5.10
2018-10-18T18:51:05.934Z,4.85
2018-10-18T18:53:39.784Z,5.80
2018-10-18T18:56:13.768Z,6.40
2018-10-18T18:58:47.611Z,6.87
2018-10-18T19:01:21.770Z,9.40
2018-10-18T19:03:55.650Z,5.25
2018-10-18T19:06:29.565Z,7.85
2018-10-18T19:09:03.655Z,10.47
2018-10-18T19:11:38.498Z,6.35
2018-10-18T19:14:12.461Z,5.80
2018-10-18T19:16:46.511Z,8.18
2018-10-18T19:19:20.352Z,4.97
2018-10-18T19:21:54.358Z,7.17
2018-10-18T19:24:28.218Z,5.63
2018-10-18T19:27:02.312Z,5.97
2018-10-18T19:29:36.273Z,3.15
2018-10-18T19:32:10.324Z,3.30
2018-10-18T19:34:44.476Z,4.40
2018-10-18T19:37:18.473Z,4.70
2018-10-18T19:39:52.367Z,6.73
2018-10-18T19:42:26.323Z,3.90
2018-10-18T19:45:00.221Z,4.30
2018-10-18T19:47:34.115Z,5.90
2018-10-18T19:50:09.017Z,4.83
2018-10-18T19:52:42.946Z,3.60
2018-10-18T19:55:16.750Z,3.10
2018-10-18T19:57:50.660Z,3.67
2018-10-18T20:00:24.517Z,3.37
2018-10-18T20:02:58.406Z,4.83
2018-10-18T20:05:32.232Z,4.57
2018-10-18T20:08:06.194Z,3.00
2018-10-18T20:10:39.975Z,4.03
2018-10-18T20:13:13.830Z,4.47
2018-10-18T20:15:47.834Z,6.07
2018-10-18T20:18:21.843Z,3.23
2018-10-18T20:20:55.627Z,4.27
2018-10-18T20:23:30.085Z,7.67
2018-10-18T20:26:04.206Z,7.13
2018-10-18T20:28:37.964Z,3.73
2018-10-18T20:31:11.855Z,4.23
2018-10-18T20:33:45.696Z,4.60
2018-10-18T20:36:19.550Z,4.17
2018-10-18T20:38:53.472Z,3.53
2018-10-18T20:41:28.025Z,3.33
2018-10-18T20:44:01.894Z,3.63
2018-10-18T20:46:35.814Z,4.43
2018-10-18T20:49:09.673Z,3.27
2018-10-18T20:51:46.473Z,4.97
2018-10-18T20:54:20.435Z,4.53
2018-10-18T20:56:54.255Z,4.20
2018-10-18T20:59:28.142Z,4.50
2018-10-18T21:02:03.060Z,7.33
2018-10-18T21:04:36.910Z,4.13
2018-10-18T21:07:10.702Z,4.13
2018-10-18T21:09:44.560Z,4.80
2018-10-18T21:12:18.407Z,4.17
2018-10-18T21:14:52.364Z,4.33
2018-10-18T21:17:26.204Z,3.60
2018-10-18T21:20:00.153Z,4.60
2018-10-18T21:22:34.005Z,3.57
2018-10-18T21:25:08.108Z,4.13
2018-10-18T21:27:41.981Z,5.07
2018-10-18T21:30:15.958Z,5.67
2018-10-18T21:32:49.795Z,5.13
2018-10-18T21:35:23.681Z,4.37
2018-10-18T21:37:57.619Z,3.77
2018-10-18T21:40:31.508Z,4.73
2018-10-18T21:43:05.495Z,2.03
2018-10-18T21:45:39.465Z,2.37
2018-10-18T21:48:13.424Z,3.10
2018-10-18T21:50:47.306Z,3.67
2018-10-18T21:53:21.161Z,3.90
2018-10-18T21:55:55.136Z,2.60
2018-10-18T21:58:28.954Z,3.93
2018-10-18T22:01:03.136Z,3.60
2018-10-18T22:03:36.999Z,2.73
2018-10-18T22:06:10.878Z,3.33
2018-10-18T22:08:44.726Z,2.70
2018-10-18T22:11:18.681Z,2.80
2018-10-18T22:13:52.521Z,2.37
2018-10-18T22:16:26.411Z,2.27
2018-10-18T22:19:00.289Z,2.10
2018-10-18T22:21:34.128Z,3.40
2018-10-18T22:24:09.204Z,1.97
2018-10-18T22:26:43.053Z,3.10
2018-10-18T22:29:16.968Z,2.13
2018-10-18T22:31:50.875Z,2.33
2018-10-18T22:34:24.705Z,2.57
2018-10-18T22:36:58.626Z,5.03
2018-10-18T22:39:32.547Z,3.63
2018-10-18T22:42:06.762Z,4.23
2018-10-18T22:44:40.706Z,1.93
2018-10-18T22:47:14.745Z,1.77
2018-10-18T22:49:48.608Z,2.30
2018-10-18T22:52:22.545Z,3.47
2018-10-18T22:54:56.494Z,2.30
2018-10-18T22:57:30.493Z,1.93
2018-10-18T23:00:04.702Z,2.40
2018-10-18T23:02:38.775Z,2.90
2018-10-18T23:05:12.706Z,5.57
2018-10-18T23:07:46.629Z,2.90
2018-10-18T23:10:20.518Z,3.30
2018-10-18T23:12:54.369Z,2.83
2018-10-18T23:15:28.213Z,2.20
2018-10-18T23:18:02.097Z,2.57
2018-10-18T23:20:35.938Z,2.17
2018-10-18T23:23:10.508Z,2.20
2018-10-18T23:25:44.376Z,3.40
2018-10-18T23:28:18.347Z,2.93
2018-10-18T23:30:52.160Z,3.77
2018-10-18T23:33:26.077Z,2.40
2018-10-18T23:35:59.909Z,2.67
2018-10-18T23:38:33.797Z,2.10
2018-10-18T23:41:07.922Z,4.97
2018-10-18T23:43:41.813Z,5.00
2018-10-18T23:46:15.678Z,2.83
2018-10-18T23:48:49.523Z,3.67
2018-10-18T23:51:23.349Z,3.53
2018-10-18T23:53:57.238Z,3.00
2018-10-18T23:56:31.143Z,2.97
2018-10-18T23:59:05.131Z,2.30
